Time;durP1;ratioP1;P1;durP2;ratioP2;P2;SDS_P1;SDS_P2;PMS_P1;PMS_P2;Temp;Humidity;BMP_temperature;BMP_pressure;BME280_temperature;BME280_humidity;BME280_pressure;Samples;Min_cycle;Max_cycle;Signal;HPM_P1;HPM_P2
2022/12/02 00:01:26;;;;;;;134.27;123.90;;;4.00;99.90;;;;;;4782650;30;20405;-59
2022/12/02 00:03:52;;;;;;;139.63;128.60;;;4.00;99.90;;;;;;4782799;30;20583;-60
2022/12/02 00:06:27;;;;;;;132.40;121.50;;;4.00;99.90;;;;;;4781416;30;20725;-59
2022/12/02 00:08:55;;;;;;;141.75;130.73;;;4.00;99.90;;;;;;4781420;30;20401;-60
2022/12/02 00:11:29;;;;;;;139.48;127.85;;;3.80;99.90;;;;;;4781663;30;20485;-61
2022/12/02 00:13:58;;;;;;;140.80;127.60;;;3.90;99.90;;;;;;4783396;30;20504;-61
2022/12/02 00:16:25;;;;;;;142.93;130.73;;;3.90;99.90;;;;;;4783779;30;20591;-61
2022/12/02 00:18:51;;;;;;;144.85;132.43;;;3.90;99.90;;;;;;4783819;30;20412;-60
2022/12/02 00:21:17;;;;;;;144.20;132.10;;;3.80;99.90;;;;;;4784080;30;20525;-60
2022/12/02 00:23:43;;;;;;;144.00;131.65;;;3.80;99.90;;;;;;4784628;30;20641;-61
2022/12/02 00:26:09;;;;;;;146.52;133.88;;;3.80;99.90;;;;;;4784989;30;20721;-60
2022/12/02 00:28:34;;;;;;;149.82;137.18;;;3.80;99.90;;;;;;4784383;30;20482;-60
2022/12/02 00:31:00;;;;;;;143.05;131.10;;;3.80;99.90;;;;;;4785235;30;20417;-60
2022/12/02 00:33:25;;;;;;;144.52;132.43;;;3.80;99.90;;;;;;4784895;30;20417;-60
2022/12/02 00:35:51;;;;;;;144.13;131.70;;;3.80;99.90;;;;;;4786885;30;20660;-61
2022/12/02 00:38:17;;;;;;;145.70;133.47;;;3.80;99.90;;;;;;4787850;30;20413;-60
2022/12/02 00:40:43;;;;;;;139.65;127.97;;;3.80;99.90;;;;;;4786610;30;20796;-60
2022/12/02 00:48:38;;;;;;;135.63;124.30;;;3.80;99.90;;;;;;4785000;30;20440;-60
2022/12/02 00:51:04;;;;;;;136.52;125.35;;;3.80;99.90;;;;;;4782613;29;20514;-59
2022/12/02 00:53:30;;;;;;;129.95;119.65;;;3.80;99.90;;;;;;4782012;30;20671;-60
2022/12/02 00:55:55;;;;;;;133.35;123.63;;;3.70;99.90;;;;;;4781069;29;20420;-59
2022/12/02 00:58:21;;;;;;;126.90;117.20;;;3.80;99.90;;;;;;4783065;30;20413;-59
2022/12/02 01:00:46;;;;;;;130.93;120.80;;;3.80;99.90;;;;;;4782012;30;20433;-58
2022/12/02 01:03:12;;;;;;;120.43;110.97;;;3.80;99.90;;;;;;4781716;30;20405;-58
2022/12/02 01:05:37;;;;;;;125.23;115.73;;;3.80;99.90;;;;;;4782136;30;20440;-60
2022/12/02 01:08:03;;;;;;;126.28;116.43;;;3.80;99.90;;;;;;4770109;30;20406;-61
2022/12/02 01:10:29;;;;;;;125.82;115.90;;;3.90;99.90;;;;;;4770829;30;20443;-56
2022/12/02 01:12:54;;;;;;;129.25;119.05;;;3.80;99.90;;;;;;4784924;30;20474;-53
2022/12/02 01:15:20;;;;;;;132.67;122.67;;;3.80;99.90;;;;;;4785750;30;20443;-55
2022/12/02 01:17:46;;;;;;;134.93;124.13;;;3.70;99.90;;;;;;4783589;30;20417;-51
2022/12/02 01:20:12;;;;;;;128.87;119.13;;;3.70;99.90;;;;;;4783056;30;20496;-59
2022/12/02 01:22:37;;;;;;;129.10;118.45;;;3.80;99.90;;;;;;4784680;30;20638;-62
2022/12/02 01:25:03;;;;;;;139.20;128.77;;;4.40;99.90;;;;;;4785979;30;20716;-65
2022/12/02 01:27:29;;;;;;;130.53;120.30;;;4.70;99.90;;;;;;4770403;30;20409;-64
2022/12/02 01:29:55;;;;;;;131.90;122.03;;;4.40;99.90;;;;;;4786436;30;20448;-63
2022/12/02 01:32:22;;;;;;;127.95;117.97;;;4.30;99.90;;;;;;4785865;30;20419;-63
2022/12/02 01:34:48;;;;;;;131.27;121.03;;;4.20;99.90;;;;;;4786092;30;20429;-63
2022/12/02 01:37:13;;;;;;;127.53;117.17;;;4.10;99.90;;;;;;4787041;30;20405;-63
2022/12/02 01:39:39;;;;;;;125.97;116.07;;;3.90;99.90;;;;;;4788193;30;20436;-64
2022/12/02 01:42:04;;;;;;;133.98;122.90;;;3.90;99.90;;;;;;4787729;30;20845;-63
2022/12/02 01:44:30;;;;;;;133.38;122.45;;;3.80;99.90;;;;;;4786997;30;20692;-64
2022/12/02 01:46:56;;;;;;;130.25;119.78;;;3.80;99.90;;;;;;4784956;30;20413;-64
2022/12/02 01:49:22;;;;;;;133.33;122.53;;;3.80;99.90;;;;;;4786971;30;20405;-64
2022/12/02 01:51:48;;;;;;;143.10;131.75;;;3.70;99.90;;;;;;4786864;29;20835;-64
2022/12/02 01:54:13;;;;;;;135.80;124.88;;;3.70;99.90;;;;;;4771204;30;20482;-63
2022/12/02 01:56:39;;;;;;;137.88;126.55;;;3.70;99.90;;;;;;4786652;30;20791;-64
2022/12/02 01:59:05;;;;;;;137.43;126.20;;;3.70;99.90;;;;;;4786871;30;20459;-64
2022/12/02 02:01:32;;;;;;;134.88;124.20;;;3.70;99.90;;;;;;4787661;30;20409;-64
2022/12/02 02:03:59;;;;;;;140.57;129.82;;;3.70;99.90;;;;;;4787613;30;20405;-64
2022/12/02 02:06:27;;;;;;;139.38;128.20;;;3.70;99.90;;;;;;4788139;29;20413;-64
2022/12/02 02:08:54;;;;;;;146.33;135.10;;;3.70;99.90;;;;;;4788499;30;20477;-64
2022/12/02 02:11:20;;;;;;;136.10;125.53;;;3.70;99.90;;;;;;4788474;30;20400;-64
2022/12/02 02:13:46;;;;;;;140.88;129.57;;;3.70;99.90;;;;;;4786749;30;20408;-64
2022/12/02 02:16:13;;;;;;;140.23;129.13;;;3.70;99.90;;;;;;4787701;30;20540;-64
2022/12/02 02:18:39;;;;;;;143.30;132.20;;;3.70;99.90;;;;;;4789046;30;20409;-64
2022/12/02 02:21:09;;;;;;;136.95;125.65;;;3.70;99.90;;;;;;4787696;30;20437;-64
2022/12/02 02:23:35;;;;;;;137.45;126.60;;;3.70;99.90;;;;;;4772109;30;20413;-64
2022/12/02 02:26:02;;;;;;;138.73;127.82;;;3.60;99.90;;;;;;4788183;30;20504;-64
2022/12/02 02:28:28;;;;;;;142.50;132.10;;;3.70;99.90;;;;;;4771524;30;20505;-64
2022/12/02 02:30:56;;;;;;;148.63;137.03;;;3.70;99.90;;;;;;4787374;30;20473;-64
2022/12/02 02:33:23;;;;;;;150.57;139.20;;;3.60;99.90;;;;;;4785447;30;20415;-64
2022/12/02 02:35:50;;;;;;;146.60;135.95;;;3.70;99.90;;;;;;4769526;30;20750;-64
2022/12/02 02:38:19;;;;;;;152.50;141.07;;;3.60;99.90;;;;;;4771421;30;20409;-64
2022/12/02 02:40:45;;;;;;;136.52;126.18;;;3.60;99.90;;;;;;4787186;30;20417;-64
2022/12/02 02:43:11;;;;;;;135.73;125.50;;;3.60;99.90;;;;;;4786790;30;20814;-65
2022/12/02 02:45:39;;;;;;;143.88;133.27;;;3.60;99.90;;;;;;4786752;30;20419;-65
2022/12/02 02:48:07;;;;;;;138.93;128.63;;;3.60;99.90;;;;;;4787263;30;20410;-64
2022/12/02 02:50:35;;;;;;;146.35;135.68;;;3.60;99.90;;;;;;4786820;29;20464;-65
2022/12/02 02:53:01;;;;;;;149.83;138.87;;;3.60;99.90;;;;;;4785867;30;20413;-64
2022/12/02 02:55:26;;;;;;;144.70;134.38;;;3.60;99.90;;;;;;4785145;30;20463;-65
2022/12/02 02:57:52;;;;;;;142.80;132.43;;;3.60;99.90;;;;;;4786356;30;20409;-65
2022/12/02 03:00:20;;;;;;;134.73;124.75;;;3.70;99.90;;;;;;4784204;30;20460;-66
2022/12/02 03:02:50;;;;;;;144.13;133.75;;;3.70;99.90;;;;;;4784275;30;20408;-65
2022/12/02 03:05:16;;;;;;;147.50;136.77;;;3.60;99.90;;;;;;4784446;30;20424;-65
2022/12/02 03:07:42;;;;;;;134.98;125.35;;;3.60;99.90;;;;;;4784999;30;20459;-65
2022/12/02 03:10:09;;;;;;;145.27;134.85;;;3.70;99.90;;;;;;4786254;30;20441;-65
2022/12/02 03:12:34;;;;;;;151.32;140.60;;;3.60;99.90;;;;;;4786662;30;20408;-65
2022/12/02 03:15:01;;;;;;;137.35;127.57;;;3.60;99.90;;;;;;4786685;30;20412;-65
2022/12/02 03:17:27;;;;;;;147.10;136.82;;;3.60;99.90;;;;;;4783781;30;20409;-63
2022/12/02 03:19:53;;;;;;;144.18;134.02;;;3.60;99.90;;;;;;4785982;30;20461;-63
2022/12/02 03:22:19;;;;;;;142.63;132.63;;;3.70;99.90;;;;;;4784888;30;20985;-64
2022/12/02 03:24:44;;;;;;;139.90;130.15;;;3.70;99.90;;;;;;4782146;30;20477;-64
2022/12/02 03:27:10;;;;;;;148.10;137.80;;;3.70;99.90;;;;;;4781734;30;20683;-64
2022/12/02 03:29:36;;;;;;;144.57;134.35;;;3.70;99.90;;;;;;4781256;30;20417;-64
2022/12/02 03:32:03;;;;;;;146.60;136.30;;;3.60;99.90;;;;;;4782472;30;20436;-65
2022/12/02 03:34:29;;;;;;;133.55;124.10;;;3.60;99.90;;;;;;4780988;30;20405;-64
2022/12/02 03:36:56;;;;;;;128.50;119.00;;;3.60;99.90;;;;;;4783065;30;20490;-64
2022/12/02 03:39:21;;;;;;;130.93;121.18;;;3.60;99.90;;;;;;4784585;30;20475;-64
2022/12/02 03:41:47;;;;;;;132.00;122.20;;;3.50;99.90;;;;;;4785825;30;20445;-64
2022/12/02 03:44:14;;;;;;;130.43;121.00;;;3.50;99.90;;;;;;4786330;30;20409;-64
2022/12/02 03:46:41;;;;;;;133.50;123.78;;;3.40;99.90;;;;;;4784048;30;20691;-64
2022/12/02 03:49:07;;;;;;;138.00;128.40;;;3.40;99.90;;;;;;4784000;30;20417;-64
2022/12/02 03:51:33;;;;;;;136.68;127.10;;;3.50;99.90;;;;;;4781211;30;20468;-64
2022/12/02 03:54:00;;;;;;;133.18;123.53;;;3.50;99.90;;;;;;4782463;30;20433;-64
2022/12/02 03:56:26;;;;;;;135.30;125.57;;;3.50;99.90;;;;;;4781526;30;20698;-64
2022/12/02 03:58:53;;;;;;;135.73;125.88;;;3.50;99.90;;;;;;4782851;30;20818;-64
2022/12/02 04:01:19;;;;;;;130.85;121.38;;;3.50;99.90;;;;;;4782336;30;20405;-64
2022/12/02 04:03:45;;;;;;;134.55;125.20;;;3.40;99.90;;;;;;4782296;30;20420;-63
2022/12/02 04:06:12;;;;;;;140.18;130.45;;;3.50;99.90;;;;;;4783937;30;20413;-64
2022/12/02 04:08:38;;;;;;;134.77;125.35;;;3.40;99.90;;;;;;4783606;30;20413;-64
2022/12/02 04:11:04;;;;;;;136.90;127.05;;;3.50;99.90;;;;;;4784919;30;20405;-64
2022/12/02 04:13:29;;;;;;;144.80;134.55;;;3.50;99.90;;;;;;4783577;30;20420;-64
2022/12/02 04:15:55;;;;;;;133.68;124.28;;;3.50;99.90;;;;;;4784659;30;20416;-64
2022/12/02 04:18:21;;;;;;;137.82;128.10;;;3.50;99.90;;;;;;4785642;30;20604;-63
2022/12/02 04:20:46;;;;;;;137.20;127.60;;;3.50;99.90;;;;;;4784782;30;20736;-63
2022/12/02 04:23:12;;;;;;;140.45;130.63;;;3.50;99.90;;;;;;4784053;30;20836;-64
2022/12/02 04:25:37;;;;;;;138.83;129.10;;;3.50;99.90;;;;;;4784802;30;20478;-63
2022/12/02 04:28:04;;;;;;;136.30;126.50;;;3.50;99.90;;;;;;4786239;30;20507;-64
2022/12/02 04:30:29;;;;;;;139.43;129.82;;;3.50;99.90;;;;;;4787590;29;20562;-64
2022/12/02 04:32:55;;;;;;;144.03;133.83;;;3.50;99.90;;;;;;4788593;30;20508;-63
2022/12/02 04:35:21;;;;;;;138.63;128.77;;;3.40;99.90;;;;;;4788515;30;20511;-63
2022/12/02 04:37:46;;;;;;;136.70;127.17;;;3.50;99.90;;;;;;4773818;30;20420;-64
2022/12/02 04:40:12;;;;;;;138.50;128.73;;;3.50;99.90;;;;;;4791033;30;20429;-63
2022/12/02 04:42:38;;;;;;;139.23;129.45;;;3.50;99.90;;;;;;4790730;30;20421;-64
2022/12/02 04:45:04;;;;;;;140.75;130.55;;;3.50;99.90;;;;;;4790607;30;20416;-64
2022/12/02 04:50:52;;;;;;;132.50;123.00;;;3.50;99.90;;;;;;4791148;30;20793;-64
2022/12/02 04:53:17;;;;;;;142.47;132.30;;;3.50;99.90;;;;;;4789024;30;20515;-63
2022/12/02 04:55:45;;;;;;;138.97;128.93;;;3.50;99.90;;;;;;4790390;30;20456;-64
2022/12/02 04:58:11;;;;;;;139.45;129.45;;;3.50;99.90;;;;;;4789368;30;20397;-64
2022/12/02 05:00:38;;;;;;;139.77;129.70;;;3.50;99.90;;;;;;4773747;30;20428;-63
2022/12/02 05:03:03;;;;;;;137.80;127.82;;;3.50;99.90;;;;;;4788904;30;20849;-63
2022/12/02 05:05:29;;;;;;;144.73;134.33;;;3.40;99.90;;;;;;4789530;30;20529;-63
2022/12/02 05:07:54;;;;;;;138.18;128.20;;;3.50;99.90;;;;;;4788556;30;20492;-64
2022/12/02 05:10:20;;;;;;;141.60;131.45;;;3.40;99.90;;;;;;4787655;30;20435;-64
2022/12/02 05:12:46;;;;;;;134.23;124.53;;;3.40;99.90;;;;;;4773701;30;20485;-64
2022/12/02 05:15:11;;;;;;;140.80;130.73;;;3.30;99.90;;;;;;4786220;30;20412;-64
2022/12/02 05:17:37;;;;;;;138.95;129.23;;;3.40;99.90;;;;;;4785892;30;20818;-63
2022/12/02 05:20:03;;;;;;;132.87;123.37;;;3.40;99.90;;;;;;4785661;30;20465;-64
2022/12/02 05:22:28;;;;;;;135.13;125.30;;;3.40;99.90;;;;;;4783732;30;20620;-63
2022/12/02 05:24:54;;;;;;;136.27;126.45;;;3.40;99.90;;;;;;4783644;30;20830;-63
2022/12/02 05:27:20;;;;;;;133.07;123.43;;;3.40;99.90;;;;;;4783690;30;20405;-63
2022/12/02 05:29:45;;;;;;;134.70;125.20;;;3.40;99.90;;;;;;4784541;30;20412;-64
2022/12/02 05:32:11;;;;;;;132.60;122.93;;;3.40;99.90;;;;;;4786970;30;20413;-64
2022/12/02 05:34:36;;;;;;;136.57;126.73;;;3.40;99.90;;;;;;4785717;30;20448;-64
2022/12/02 05:37:02;;;;;;;133.70;124.05;;;3.40;99.90;;;;;;4785498;30;20475;-64
2022/12/02 05:39:28;;;;;;;130.40;121.25;;;3.40;99.90;;;;;;4784666;30;20902;-64
2022/12/02 05:41:58;;;;;;;128.17;118.93;;;3.40;99.90;;;;;;4785658;29;20423;-64
2022/12/02 05:44:27;;;;;;;129.65;120.35;;;3.40;99.90;;;;;;4785627;30;20711;-64
2022/12/02 05:47:00;;;;;;;132.27;122.90;;;3.40;99.90;;;;;;4768804;30;20413;-64
2022/12/02 05:49:26;;;;;;;127.72;118.72;;;3.40;99.90;;;;;;4783755;30;20473;-64
2022/12/02 05:51:57;;;;;;;131.93;122.53;;;3.40;99.90;;;;;;4783063;30;20441;-64
2022/12/02 05:54:24;;;;;;;127.95;118.82;;;3.40;99.90;;;;;;4781596;30;20416;-65
2022/12/02 05:56:50;;;;;;;132.48;123.07;;;3.40;99.90;;;;;;4781112;30;20409;-64
2022/12/02 05:59:19;;;;;;;133.30;124.13;;;3.40;99.90;;;;;;4780195;30;20466;-65
2022/12/02 06:01:52;;;;;;;131.50;122.05;;;3.40;99.90;;;;;;4781002;30;20405;-64
2022/12/02 06:04:27;;;;;;;127.97;119.00;;;3.40;99.90;;;;;;4781312;30;20632;-65
2022/12/02 06:06:54;;;;;;;127.18;118.45;;;3.40;99.90;;;;;;4779043;30;20464;-64
2022/12/02 06:09:24;;;;;;;129.90;120.88;;;3.40;99.90;;;;;;4781046;30;20821;-64
2022/12/02 06:11:51;;;;;;;127.80;118.57;;;3.40;99.90;;;;;;4781002;30;20469;-64
2022/12/02 06:14:24;;;;;;;124.20;115.43;;;3.30;99.90;;;;;;4781982;30;20409;-64
2022/12/02 06:17:15;;;;;;;128.02;119.22;;;3.30;99.90;;;;;;4780591;30;20417;-64
2022/12/02 06:19:55;;;;;;;126.07;117.55;;;3.30;99.90;;;;;;4779041;30;20600;-64
2022/12/02 06:22:27;;;;;;;122.20;113.65;;;3.40;99.90;;;;;;4778617;30;20411;-64
2022/12/02 06:24:55;;;;;;;127.43;118.80;;;3.40;99.90;;;;;;4777903;30;20761;-64
2022/12/02 06:27:21;;;;;;;132.45;123.32;;;3.40;99.90;;;;;;4778999;30;20775;-64
2022/12/02 06:29:56;;;;;;;123.38;114.88;;;3.40;99.90;;;;;;4779754;30;20419;-64
2022/12/02 06:32:27;;;;;;;120.85;112.32;;;3.40;99.90;;;;;;4781220;30;20936;-64
2022/12/02 06:34:53;;;;;;;119.90;111.30;;;3.40;99.90;;;;;;4779700;30;20480;-64
2022/12/02 06:37:20;;;;;;;123.57;115.03;;;3.40;99.90;;;;;;4782247;30;20496;-64
2022/12/02 06:39:48;;;;;;;127.05;118.40;;;3.40;99.90;;;;;;4779468;30;20909;-65
2022/12/02 06:42:40;;;;;;;122.80;114.23;;;3.40;99.90;;;;;;4778383;30;20799;-64
2022/12/02 06:45:12;;;;;;;120.53;112.07;;;3.40;99.90;;;;;;4768692;30;20513;-64
2022/12/02 06:47:41;;;;;;;122.72;113.95;;;3.40;99.90;;;;;;4771482;30;20409;-65
2022/12/02 06:50:06;;;;;;;118.90;110.40;;;3.30;99.90;;;;;;4770660;29;20433;-64
2022/12/02 06:52:38;;;;;;;122.83;114.27;;;3.30;99.90;;;;;;4771351;29;20617;-64
2022/12/02 06:55:24;;;;;;;119.35;110.85;;;3.30;99.90;;;;;;4755930;30;20465;-64
2022/12/02 06:57:50;;;;;;;114.80;106.80;;;3.30;99.90;;;;;;4757046;30;20416;-64
2022/12/02 07:00:16;;;;;;;116.10;107.93;;;3.30;99.90;;;;;;4772387;30;20523;-64
2022/12/02 07:02:43;;;;;;;116.97;108.82;;;3.30;99.90;;;;;;4769238;30;20421;-65
2022/12/02 07:05:15;;;;;;;121.53;113.13;;;3.40;99.90;;;;;;4768727;30;20424;-64
2022/12/02 07:07:41;;;;;;;115.05;106.82;;;3.40;99.90;;;;;;4768251;30;20435;-64
2022/12/02 07:10:17;;;;;;;119.32;110.88;;;3.40;99.90;;;;;;4770157;30;20708;-64
2022/12/02 07:12:44;;;;;;;116.55;108.32;;;3.40;99.90;;;;;;4769700;30;20417;-64
2022/12/02 07:15:31;;;;;;;126.40;117.43;;;3.40;99.90;;;;;;4755191;30;20408;-64
2022/12/02 07:18:18;;;;;;;126.32;117.20;;;3.40;99.90;;;;;;4757022;30;20621;-64
2022/12/02 07:20:46;;;;;;;122.10;113.55;;;3.40;99.90;;;;;;4772534;30;20433;-64
2022/12/02 07:23:23;;;;;;;130.03;120.80;;;3.40;99.90;;;;;;4759133;30;20950;-65
2022/12/02 07:25:59;;;;;;;122.50;113.90;;;3.40;99.90;;;;;;4757345;30;20401;-64
2022/12/02 07:28:32;;;;;;;127.15;118.10;;;3.40;99.90;;;;;;4773154;30;20558;-64
2022/12/02 07:31:23;;;;;;;126.70;117.63;;;3.40;99.90;;;;;;4772753;30;20714;-65
2022/12/02 07:33:50;;;;;;;116.55;108.25;;;3.40;99.90;;;;;;4773789;30;20497;-64
2022/12/02 07:36:16;;;;;;;118.88;110.10;;;3.40;99.90;;;;;;4775431;30;20810;-64
2022/12/02 07:38:42;;;;;;;120.43;111.68;;;3.40;99.90;;;;;;4772251;30;20588;-64
2022/12/02 07:41:08;;;;;;;118.78;110.07;;;3.40;99.90;;;;;;4771011;30;20432;-64
2022/12/02 07:43:34;;;;;;;121.75;112.82;;;3.40;99.90;;;;;;4771216;30;20725;-64
2022/12/02 07:46:00;;;;;;;124.82;116.05;;;3.50;99.90;;;;;;4772369;30;20686;-64
2022/12/02 07:48:25;;;;;;;124.88;115.75;;;3.50;99.90;;;;;;4772246;30;20581;-64
2022/12/02 07:50:51;;;;;;;118.03;109.63;;;3.50;99.90;;;;;;4772031;29;20592;-64
2022/12/02 07:53:17;;;;;;;125.28;115.82;;;3.50;99.90;;;;;;4772990;30;20954;-64
2022/12/02 07:55:42;;;;;;;120.10;111.35;;;3.50;99.90;;;;;;4757858;30;20651;-64
2022/12/02 07:58:08;;;;;;;126.97;117.77;;;3.40;99.90;;;;;;4775077;30;20667;-64
2022/12/02 08:00:35;;;;;;;114.43;106.23;;;3.40;99.90;;;;;;4772831;30;20429;-64
2022/12/02 08:03:01;;;;;;;119.50;110.97;;;3.50;99.90;;;;;;4774528;30;20680;-64
2022/12/02 08:05:27;;;;;;;112.72;104.25;;;3.50;99.90;;;;;;4759338;30;20551;-65
2022/12/02 08:07:53;;;;;;;116.25;107.82;;;3.50;99.90;;;;;;4773584;30;20885;-64
2022/12/02 08:10:19;;;;;;;124.47;115.45;;;3.50;99.90;;;;;;4774381;30;20413;-64
2022/12/02 08:12:44;;;;;;;123.22;114.35;;;3.50;99.90;;;;;;4774418;30;20768;-64
2022/12/02 08:15:12;;;;;;;119.95;111.13;;;3.50;99.90;;;;;;4774690;30;20797;-64
2022/12/02 08:17:38;;;;;;;122.33;113.37;;;3.50;99.90;;;;;;4775910;30;20401;-64
2022/12/02 08:20:06;;;;;;;120.90;112.22;;;3.50;99.90;;;;;;4776140;30;20981;-64
2022/12/02 08:22:32;;;;;;;121.20;112.53;;;3.50;99.90;;;;;;4776002;30;20413;-64
2022/12/02 08:24:57;;;;;;;126.15;117.03;;;3.50;99.90;;;;;;4778283;30;20428;-65
2022/12/02 08:27:24;;;;;;;124.50;115.80;;;3.60;99.90;;;;;;4778753;30;20412;-64
2022/12/02 08:29:51;;;;;;;121.93;112.97;;;3.60;99.90;;;;;;4777806;30;20539;-64
2022/12/02 08:32:17;;;;;;;123.03;114.05;;;3.60;99.90;;;;;;4775527;30;20408;-64
2022/12/02 08:34:43;;;;;;;122.38;113.65;;;3.60;99.90;;;;;;4759728;30;20456;-64
2022/12/02 08:37:08;;;;;;;122.70;113.97;;;3.60;99.90;;;;;;4759619;30;20417;-64
2022/12/02 08:39:34;;;;;;;124.22;115.32;;;3.60;99.90;;;;;;4757609;30;20432;-64
2022/12/02 08:42:00;;;;;;;121.90;113.25;;;3.60;99.90;;;;;;4769113;30;20549;-64
2022/12/02 08:44:26;;;;;;;122.15;113.47;;;3.60;99.90;;;;;;4770005;30;20409;-64
2022/12/02 08:46:51;;;;;;;119.82;110.95;;;3.60;99.90;;;;;;4770650;30;20409;-64
2022/12/02 08:49:18;;;;;;;124.60;115.57;;;3.60;99.90;;;;;;4769967;30;20413;-64
2022/12/02 08:51:43;;;;;;;126.65;117.63;;;3.60;99.90;;;;;;4771649;29;20538;-64
2022/12/02 08:54:09;;;;;;;125.72;116.82;;;3.60;99.90;;;;;;4770865;30;20435;-64
2022/12/02 08:56:35;;;;;;;139.38;128.07;;;3.70;99.90;;;;;;4771057;30;20869;-64
2022/12/02 08:59:01;;;;;;;132.07;121.80;;;3.70;99.90;;;;;;4772545;30;20553;-64
2022/12/02 09:01:26;;;;;;;123.95;114.95;;;3.80;99.90;;;;;;4772948;30;20417;-65
2022/12/02 09:03:52;;;;;;;130.05;120.80;;;3.80;99.90;;;;;;4769768;30;20447;-64
2022/12/02 09:06:18;;;;;;;124.65;115.72;;;3.80;99.90;;;;;;4766672;30;20432;-64
2022/12/02 09:08:44;;;;;;;130.68;121.38;;;3.80;99.90;;;;;;4771704;30;20409;-64
2022/12/02 09:11:10;;;;;;;124.78;115.88;;;3.80;99.90;;;;;;4776237;30;20418;-64
2022/12/02 09:13:36;;;;;;;127.45;118.47;;;3.80;99.90;;;;;;4773748;30;20780;-64
2022/12/02 09:16:02;;;;;;;120.60;112.20;;;3.80;99.90;;;;;;4760294;29;20707;-64
2022/12/02 09:18:28;;;;;;;128.35;119.13;;;3.80;99.90;;;;;;4745057;30;20559;-64
2022/12/02 09:20:53;;;;;;;127.68;118.53;;;3.70;99.90;;;;;;4746299;30;20751;-63
2022/12/02 09:23:19;;;;;;;131.55;122.05;;;3.80;99.90;;;;;;4759420;30;20672;-63
2022/12/02 09:25:45;;;;;;;132.68;123.20;;;3.80;99.90;;;;;;4758397;30;20617;-64
2022/12/02 09:28:11;;;;;;;139.60;129.52;;;3.80;99.90;;;;;;4758451;30;20986;-64
2022/12/02 09:30:37;;;;;;;129.70;120.53;;;3.80;99.90;;;;;;4760069;30;20751;-64
2022/12/02 09:33:03;;;;;;;134.80;125.40;;;3.80;99.90;;;;;;4762146;30;20782;-64
2022/12/02 09:35:29;;;;;;;145.33;134.73;;;3.80;99.90;;;;;;4764548;30;20492;-64
2022/12/02 09:37:54;;;;;;;130.50;120.90;;;3.70;99.90;;;;;;4766576;30;20413;-64
2022/12/02 09:40:20;;;;;;;135.37;125.30;;;3.70;99.90;;;;;;4768507;30;21228;-65
2022/12/02 09:42:46;;;;;;;126.53;117.33;;;3.70;99.90;;;;;;4770874;30;20462;-64
2022/12/02 09:45:12;;;;;;;121.90;113.00;;;3.70;99.90;;;;;;4771173;30;20502;-64
2022/12/02 09:47:39;;;;;;;130.13;120.68;;;3.80;99.90;;;;;;4772831;30;20501;-64
2022/12/02 09:50:06;;;;;;;132.77;123.25;;;3.80;99.90;;;;;;4773252;30;20617;-64
2022/12/02 09:52:32;;;;;;;120.10;111.30;;;3.80;99.90;;;;;;4771611;30;20413;-63
2022/12/02 09:55:00;;;;;;;132.75;123.28;;;3.80;99.90;;;;;;4772311;30;20648;-64
2022/12/02 09:57:31;;;;;;;131.57;122.13;;;3.90;99.90;;;;;;4770500;30;20439;-65
2022/12/02 09:59:59;;;;;;;132.30;122.65;;;4.00;99.90;;;;;;4774555;30;21103;-64
2022/12/02 10:02:34;;;;;;;129.77;119.95;;;3.90;99.90;;;;;;4775987;30;20425;-65
2022/12/02 10:05:23;;;;;;;135.68;125.75;;;4.00;99.90;;;;;;4774336;30;20424;-65
2022/12/02 10:07:52;;;;;;;130.25;120.55;;;4.00;99.90;;;;;;4757408;30;20416;-65
2022/12/02 10:10:25;;;;;;;131.07;121.78;;;4.00;99.90;;;;;;4772317;30;20401;-64
2022/12/02 10:12:52;;;;;;;130.85;121.55;;;4.00;99.90;;;;;;4774059;29;20477;-65
2022/12/02 10:15:24;;;;;;;129.25;119.88;;;4.00;99.90;;;;;;4775225;30;21090;-65
2022/12/02 10:17:51;;;;;;;129.67;120.07;;;4.00;99.90;;;;;;4775752;30;20416;-64
2022/12/02 10:20:23;;;;;;;135.65;125.88;;;4.10;99.90;;;;;;4776889;30;20433;-65
2022/12/02 10:23:08;;;;;;;133.63;124.00;;;4.10;99.90;;;;;;4778283;30;20457;-65
2022/12/02 10:25:35;;;;;;;134.20;124.63;;;4.10;99.90;;;;;;4777301;30;20405;-65
2022/12/02 10:28:01;;;;;;;134.68;124.85;;;4.10;99.90;;;;;;4777255;29;20409;-65
2022/12/02 10:30:28;;;;;;;139.77;129.67;;;4.10;99.90;;;;;;4778057;30;20401;-65
2022/12/02 10:33:04;;;;;;;148.40;138.07;;;4.10;99.90;;;;;;4777655;30;20417;-64
2022/12/02 10:35:46;;;;;;;141.77;131.70;;;4.10;99.90;;;;;;4778519;30;20706;-64
2022/12/02 10:38:33;;;;;;;142.82;132.60;;;4.10;99.90;;;;;;4778223;30;20773;-64
2022/12/02 10:41:14;;;;;;;138.77;128.77;;;4.00;99.90;;;;;;4777327;30;20460;-64
2022/12/02 10:44:05;;;;;;;139.73;129.95;;;4.00;99.90;;;;;;4776649;30;20421;-65
2022/12/02 10:46:31;;;;;;;137.30;127.57;;;4.00;99.90;;;;;;4775488;30;20409;-64
2022/12/02 10:49:33;;;;;;;140.65;130.52;;;4.10;99.90;;;;;;4777078;30;20420;-65
2022/12/02 10:52:05;;;;;;;143.98;133.70;;;4.00;99.90;;;;;;4777170;30;20437;-64
2022/12/02 10:54:33;;;;;;;143.57;133.30;;;4.00;99.90;;;;;;4777331;30;20404;-64
2022/12/02 10:57:00;;;;;;;136.55;126.38;;;4.00;99.90;;;;;;4778062;30;20413;-64
2022/12/02 10:59:26;;;;;;;145.73;135.18;;;4.10;99.90;;;;;;4762802;30;20433;-65
2022/12/02 11:01:53;;;;;;;136.63;126.87;;;4.00;99.90;;;;;;4776922;30;20482;-63
2022/12/02 11:04:19;;;;;;;137.73;127.82;;;4.00;99.90;;;;;;4774086;30;20479;-63
2022/12/02 11:06:46;;;;;;;133.73;124.03;;;4.00;99.90;;;;;;4774477;30;20481;-63
2022/12/02 11:09:23;;;;;;;133.57;123.87;;;4.10;99.90;;;;;;4758926;30;21017;-63
2022/12/02 11:11:50;;;;;;;126.80;116.97;;;4.00;99.90;;;;;;4774507;30;20805;-57
2022/12/02 11:14:37;;;;;;;127.65;118.68;;;4.00;99.90;;;;;;4775669;30;20409;-58
2022/12/02 11:17:06;;;;;;;126.75;117.40;;;4.00;99.90;;;;;;4763582;30;20400;-63
2022/12/02 11:19:32;;;;;;;137.25;127.63;;;4.10;99.90;;;;;;4761972;30;20425;-63
2022/12/02 11:21:58;;;;;;;136.67;126.93;;;4.00;99.90;;;;;;4777797;30;20607;-63
2022/12/02 11:24:26;;;;;;;141.67;131.57;;;4.10;99.90;;;;;;4779384;30;20413;-64
2022/12/02 11:27:11;;;;;;;136.98;127.20;;;4.00;99.90;;;;;;4777830;30;20402;-64
2022/12/02 11:30:01;;;;;;;142.10;132.25;;;4.00;99.90;;;;;;4777101;30;20424;-64
2022/12/02 11:32:27;;;;;;;138.73;129.05;;;4.00;99.90;;;;;;4777591;30;20439;-63
2022/12/02 11:35:00;;;;;;;144.38;134.63;;;4.00;99.90;;;;;;4758836;30;20509;-64
2022/12/02 11:37:28;;;;;;;138.37;128.83;;;4.10;99.90;;;;;;4773977;30;20428;-63
2022/12/02 11:40:02;;;;;;;142.90;132.88;;;4.10;99.90;;;;;;4775262;29;21114;-64
2022/12/02 11:42:31;;;;;;;140.10;130.65;;;4.10;99.90;;;;;;4776067;30;21093;-63
2022/12/02 11:45:15;;;;;;;141.95;131.98;;;4.10;99.90;;;;;;4776058;30;20477;-63
2022/12/02 11:47:44;;;;;;;140.70;131.02;;;4.10;99.90;;;;;;4773817;30;20447;-64
2022/12/02 11:50:20;;;;;;;141.43;132.13;;;4.10;99.90;;;;;;4773921;30;20449;-64
2022/12/02 11:52:55;;;;;;;140.60;131.00;;;4.10;99.90;;;;;;4772209;30;20413;-64
2022/12/02 11:55:35;;;;;;;145.17;135.03;;;4.10;99.90;;;;;;4768450;30;20405;-63
2022/12/02 11:58:03;;;;;;;140.55;131.13;;;4.10;99.90;;;;;;4769108;30;20412;-63
2022/12/02 12:00:29;;;;;;;143.05;133.25;;;4.10;99.90;;;;;;4773701;30;20420;-64
2022/12/02 12:03:05;;;;;;;137.93;128.52;;;4.20;99.90;;;;;;4771563;30;20401;-64
2022/12/02 12:05:31;;;;;;;140.30;130.43;;;4.20;99.90;;;;;;4772959;30;20525;-63
2022/12/02 12:07:56;;;;;;;141.30;131.53;;;4.10;99.90;;;;;;4770686;30;20552;-64
2022/12/02 12:10:32;;;;;;;135.30;125.90;;;4.20;99.90;;;;;;4757080;30;20461;-64
2022/12/02 12:13:18;;;;;;;138.88;129.55;;;4.10;99.90;;;;;;4773189;30;20416;-65
2022/12/02 12:15:57;;;;;;;137.35;128.05;;;4.10;99.90;;;;;;4759439;30;20429;-65
2022/12/02 12:18:45;;;;;;;136.68;127.50;;;4.20;99.90;;;;;;4774169;30;20412;-66
2022/12/02 12:21:13;;;;;;;133.00;124.13;;;4.20;99.90;;;;;;4765596;30;20490;-65
2022/12/02 12:23:42;;;;;;;138.35;128.70;;;4.20;99.90;;;;;;4766666;30;20409;-63
2022/12/02 12:26:28;;;;;;;137.45;128.27;;;4.20;99.90;;;;;;4768178;30;20405;-63
2022/12/02 12:28:53;;;;;;;137.23;127.55;;;4.20;99.90;;;;;;4769240;30;20412;-64
2022/12/02 12:31:19;;;;;;;140.45;130.75;;;4.10;99.90;;;;;;4765964;30;20640;-64
2022/12/02 12:33:44;;;;;;;135.77;126.55;;;4.10;99.90;;;;;;4767177;30;20486;-64